Mirage, Colorado
Current Conditions -  °F | °C
As of 1:11 PM on Friday 19 Dec 2014 (Local Time) from K04V Reporting Station
Clear Clear  
Wind Chill: 26°   Ceiling: Unl
Heat Index: 34°   Visibility: 10mi
Dew Point: 12°   Wind: 9mph
Humidity: 41%   Direction: 350°N
Pressure: 30.12"   Gusts: NA
Location:  37.9777°N, 105.779°W
Report Text: K04V 192011Z AUTO 35008KT 10SM CLR 01/M11 A3012 RMK AO2
Loading
Personal Weather Stations






























Interactive Weather Map New forecast layout! Learn more

10-Day Weather Forecast

Advertisements
Track Severe Weather on mobile